createdAt,value
2023-04-27T00:00:19.268Z,12.70
2023-04-27T00:02:46.826Z,10.98
2023-04-27T00:05:14.220Z,15.10
2023-04-27T00:07:41.832Z,15.30
2023-04-27T00:10:09.402Z,13.30
2023-04-27T00:12:36.661Z,16.45
2023-04-27T00:15:04.597Z,15.98
2023-04-27T00:17:32.496Z,15.05
2023-04-27T00:20:00.674Z,13.63
2023-04-27T00:22:27.846Z,13.77
2023-04-27T00:24:54.875Z,10.90
2023-04-27T00:27:22.056Z,10.70
2023-04-27T00:29:49.130Z,12.75
2023-04-27T00:32:16.669Z,14.02
2023-04-27T00:34:43.874Z,13.98
2023-04-27T00:37:13.009Z,14.57
2023-04-27T00:39:40.093Z,12.65
2023-04-27T00:42:11.710Z,12.77
2023-04-27T00:44:39.944Z,13.05
2023-04-27T00:47:07.332Z,12.32
2023-04-27T00:49:34.502Z,11.95
2023-04-27T00:52:01.660Z,12.18
2023-04-27T00:54:29.120Z,14.18
2023-04-27T00:56:56.402Z,12.32
2023-04-27T00:59:23.479Z,16.17
2023-04-27T01:01:52.781Z,13.10
2023-04-27T01:04:20.369Z,16.02
2023-04-27T01:06:48.030Z,13.63
2023-04-27T01:09:16.633Z,14.60
2023-04-27T01:11:43.588Z,13.23
2023-04-27T01:14:10.656Z,13.10
2023-04-27T01:16:38.121Z,12.27
2023-04-27T01:19:05.327Z,12.82
2023-04-27T01:21:32.607Z,15.50
2023-04-27T01:23:59.704Z,11.60
2023-04-27T01:26:27.031Z,14.18
2023-04-27T01:28:54.046Z,11.50
2023-04-27T01:31:21.266Z,11.63
2023-04-27T01:33:48.614Z,13.35
2023-04-27T01:36:15.635Z,14.77
2023-04-27T01:38:43.164Z,12.52
2023-04-27T01:41:13.371Z,12.52
2023-04-27T01:43:43.853Z,12.13
2023-04-27T01:46:14.491Z,11.07
2023-04-27T01:48:41.960Z,10.45
2023-04-27T01:51:08.957Z,12.40
2023-04-27T01:53:36.062Z,11.65
2023-04-27T01:56:03.810Z,11.18
2023-04-27T01:58:33.251Z,12.02
2023-04-27T02:01:00.472Z,12.38
2023-04-27T02:03:29.440Z,9.70
2023-04-27T02:05:56.518Z,10.90
2023-04-27T02:08:23.574Z,11.55
2023-04-27T02:10:50.864Z,10.50
2023-04-27T02:13:17.763Z,11.45
2023-04-27T02:15:44.879Z,10.23
2023-04-27T02:18:12.277Z,11.07
2023-04-27T02:20:39.229Z,10.77
2023-04-27T02:23:06.879Z,9.02
2023-04-27T02:25:37.006Z,12.18
2023-04-27T02:28:04.415Z,11.40
2023-04-27T02:30:32.214Z,9.32
2023-04-27T02:33:02.226Z,10.52
2023-04-27T02:35:33.426Z,12.02
2023-04-27T02:38:00.877Z,10.50
2023-04-27T02:40:28.502Z,10.27
2023-04-27T02:42:55.699Z,9.35
2023-04-27T02:45:22.638Z,11.20
2023-04-27T02:47:51.096Z,12.13
2023-04-27T02:50:18.160Z,11.75
2023-04-27T02:52:45.180Z,10.50
2023-04-27T02:55:12.227Z,11.15
2023-04-27T02:57:39.476Z,12.20
2023-04-27T03:00:09.293Z,10.55
2023-04-27T03:02:36.724Z,11.02
2023-04-27T03:05:04.659Z,13.27
2023-04-27T03:07:32.244Z,11.35
2023-04-27T03:09:59.325Z,15.45
2023-04-27T03:12:26.679Z,12.40
2023-04-27T03:14:53.819Z,14.25
2023-04-27T03:17:20.897Z,14.43
2023-04-27T03:19:49.378Z,14.65
2023-04-27T03:22:16.549Z,16.17
2023-04-27T03:24:43.521Z,12.35
2023-04-27T03:27:10.533Z,12.30
2023-04-27T03:29:38.092Z,12.25
2023-04-27T03:32:05.660Z,14.30
2023-04-27T03:34:33.132Z,15.68
2023-04-27T03:37:00.346Z,16.83
2023-04-27T03:39:27.950Z,11.98
2023-04-27T03:41:54.967Z,11.82
2023-04-27T03:44:22.187Z,15.43
2023-04-27T03:46:49.254Z,13.20
2023-04-27T03:49:16.759Z,12.60
2023-04-27T03:51:44.191Z,14.20
2023-04-27T03:54:11.708Z,15.18
2023-04-27T03:56:39.023Z,14.90
2023-04-27T03:59:06.581Z,13.32
2023-04-27T04:01:37.318Z,13.50
2023-04-27T04:04:04.686Z,11.90
2023-04-27T04:06:32.468Z,13.93
2023-04-27T04:08:59.530Z,12.20
2023-04-27T04:11:27.620Z,13.07
2023-04-27T04:13:57.624Z,12.25
2023-04-27T04:16:24.774Z,15.38
2023-04-27T04:18:53.252Z,11.70
2023-04-27T04:21:21.260Z,14.07
2023-04-27T04:23:48.864Z,11.30
2023-04-27T04:26:16.799Z,13.45
2023-04-27T04:28:45.103Z,12.20
2023-04-27T04:31:15.153Z,12.88
2023-04-27T04:33:42.127Z,12.90
2023-04-27T04:36:11.066Z,13.02
2023-04-27T04:38:38.371Z,11.52
2023-04-27T04:41:07.439Z,16.45
2023-04-27T04:43:34.655Z,15.45
2023-04-27T04:46:04.933Z,15.48
2023-04-27T04:48:32.475Z,11.85
2023-04-27T04:50:59.653Z,13.50
2023-04-27T04:53:27.022Z,14.35
2023-04-27T04:55:56.153Z,15.85
2023-04-27T04:58:23.241Z,12.15
2023-04-27T05:00:50.237Z,13.25
2023-04-27T05:03:17.834Z,17.00
2023-04-27T05:05:45.010Z,11.60
2023-04-27T05:08:12.019Z,13.88
2023-04-27T05:10:39.107Z,13.95
2023-04-27T05:13:07.277Z,13.60
2023-04-27T05:15:34.590Z,13.75
2023-04-27T05:18:01.657Z,12.45
2023-04-27T05:20:28.639Z,13.98
2023-04-27T05:22:55.807Z,13.38
2023-04-27T05:25:22.705Z,12.48
2023-04-27T05:27:49.682Z,12.00
2023-04-27T05:30:16.946Z,13.85
2023-04-27T05:32:44.210Z,11.00
2023-04-27T05:35:11.537Z,12.45
2023-04-27T05:37:38.474Z,9.52
2023-04-27T05:40:07.564Z,11.27
2023-04-27T05:42:34.700Z,12.55
2023-04-27T05:45:02.817Z,13.27
2023-04-27T05:47:31.107Z,10.93
2023-04-27T05:49:58.092Z,11.07
2023-04-27T05:52:30.889Z,9.35
2023-04-27T05:55:01.354Z,10.43
2023-04-27T05:57:30.293Z,13.27
2023-04-27T05:59:57.369Z,10.82
2023-04-27T06:02:24.481Z,20.80
2023-04-27T06:04:51.839Z,11.35
2023-04-27T06:07:18.763Z,13.95
2023-04-27T06:09:45.942Z,11.60
2023-04-27T06:12:12.931Z,9.82
2023-04-27T06:14:39.962Z,12.35
2023-04-27T06:17:07.104Z,11.15
2023-04-27T06:19:34.136Z,10.43
2023-04-27T06:22:01.248Z,11.63
2023-04-27T06:24:28.856Z,10.50
2023-04-27T06:26:58.865Z,11.60
2023-04-27T06:29:25.921Z,11.05
2023-04-27T06:31:52.919Z,10.98
2023-04-27T06:34:19.962Z,11.35
2023-04-27T06:36:47.093Z,9.77
2023-04-27T06:39:14.461Z,11.20
2023-04-27T06:41:41.718Z,8.70
2023-04-27T06:44:18.838Z,11.50
2023-04-27T06:46:45.975Z,10.80
2023-04-27T06:49:13.149Z,9.63
2023-04-27T06:51:40.251Z,8.55
2023-04-27T06:54:07.848Z,8.77
2023-04-27T06:56:34.901Z,9.65
2023-04-27T06:59:01.856Z,7.80
2023-04-27T07:01:29.030Z,7.32
2023-04-27T07:03:56.310Z,12.70
2023-04-27T07:06:25.616Z,8.82
2023-04-27T07:08:52.757Z,8.45
2023-04-27T07:11:19.916Z,9.25
2023-04-27T07:13:47.538Z,8.88
2023-04-27T07:16:15.820Z,9.05
2023-04-27T07:18:44.285Z,10.45
2023-04-27T07:21:11.543Z,9.60
2023-04-27T07:23:41.289Z,10.52
2023-04-27T07:26:09.029Z,13.98
2023-04-27T07:28:36.271Z,9.10
2023-04-27T07:31:06.720Z,14.98
2023-04-27T07:33:34.581Z,12.40
2023-04-27T07:36:02.828Z,10.55
2023-04-27T07:38:31.409Z,11.77
2023-04-27T07:41:05.811Z,11.43
2023-04-27T07:43:32.857Z,9.73
2023-04-27T07:45:59.933Z,10.65
2023-04-27T07:48:28.865Z,13.73
2023-04-27T07:50:56.013Z,10.10
2023-04-27T07:53:23.041Z,9.25
2023-04-27T07:55:49.978Z,11.30
2023-04-27T07:58:17.212Z,9.80
2023-04-27T08:00:44.245Z,9.45
2023-04-27T08:03:11.275Z,10.15
2023-04-27T08:05:39.423Z,11.63
2023-04-27T08:08:07.041Z,9.65
2023-04-27T08:10:34.163Z,10.10
2023-04-27T08:13:01.396Z,9.43
2023-04-27T08:15:28.481Z,10.50
2023-04-27T08:17:55.613Z,12.32
2023-04-27T08:20:22.612Z,10.00
2023-04-27T08:22:51.392Z,13.07
2023-04-27T08:25:18.500Z,10.48
2023-04-27T08:27:47.055Z,10.20
2023-04-27T08:30:14.354Z,11.30
2023-04-27T08:32:41.792Z,13.50
2023-04-27T08:35:09.295Z,11.25
2023-04-27T08:37:36.356Z,10.65
2023-04-27T08:40:06.255Z,13.48
2023-04-27T08:42:33.320Z,12.55
2023-04-27T08:45:00.289Z,10.13
2023-04-27T08:47:41.136Z,9.20
2023-04-27T08:50:10.533Z,9.90
2023-04-27T08:52:37.912Z,10.00
2023-04-27T08:55:05.591Z,11.10
2023-04-27T08:57:32.613Z,11.43
2023-04-27T09:00:00.917Z,12.90
2023-04-27T09:02:29.817Z,12.63
2023-04-27T09:04:57.331Z,9.10
2023-04-27T09:07:26.165Z,9.85
2023-04-27T09:10:03.123Z,9.55
2023-04-27T09:12:30.575Z,9.40
2023-04-27T09:14:57.985Z,8.88
2023-04-27T09:17:28.018Z,9.45
2023-04-27T09:20:13.607Z,11.77
2023-04-27T09:22:48.715Z,10.13
2023-04-27T09:25:32.595Z,8.25
2023-04-27T09:28:00.778Z,8.98
2023-04-27T09:30:29.986Z,9.25
2023-04-27T09:33:04.693Z,8.48
2023-04-27T09:35:33.694Z,11.88
2023-04-27T09:38:01.317Z,8.82
2023-04-27T09:40:32.202Z,8.85
2023-04-27T09:43:04.500Z,10.05
2023-04-27T09:45:34.121Z,8.88
2023-04-27T09:48:01.951Z,8.68
2023-04-27T09:50:29.318Z,8.85
2023-04-27T09:52:57.270Z,11.25
2023-04-27T09:55:39.750Z,9.52
2023-04-27T09:58:24.273Z,8.25
2023-04-27T10:01:19.793Z,10.63
2023-04-27T10:04:09.986Z,9.18
2023-04-27T10:06:52.680Z,20.17
2023-04-27T10:09:23.979Z,10.23
2023-04-27T10:11:52.503Z,11.05
2023-04-27T10:14:21.871Z,8.82
2023-04-27T10:16:54.183Z,10.57
2023-04-27T10:19:23.750Z,9.90
2023-04-27T10:22:03.430Z,8.48
2023-04-27T10:24:44.361Z,9.40
2023-04-27T10:27:16.127Z,8.15
2023-04-27T10:29:44.916Z,8.82
2023-04-27T10:32:19.110Z,8.20
2023-04-27T10:34:48.337Z,8.95
2023-04-27T10:37:16.001Z,7.07
2023-04-27T10:39:48.973Z,9.00
2023-04-27T10:42:30.574Z,8.07
2023-04-27T10:44:58.421Z,8.82
2023-04-27T10:47:36.125Z,9.65
2023-04-27T10:50:04.899Z,9.95
2023-04-27T10:52:31.971Z,8.40
2023-04-27T10:54:59.097Z,12.30
2023-04-27T10:57:26.971Z,9.02
2023-04-27T10:59:55.755Z,9.48
2023-04-27T11:02:28.429Z,9.57
2023-04-27T11:04:56.721Z,9.73
2023-04-27T11:07:28.409Z,8.85
2023-04-27T11:09:56.150Z,9.65
2023-04-27T11:12:24.278Z,8.52
2023-04-27T11:14:57.862Z,10.25
2023-04-27T11:17:32.568Z,10.93
2023-04-27T11:19:59.586Z,10.70
2023-04-27T11:22:27.048Z,11.00
2023-04-27T11:24:54.157Z,10.38
2023-04-27T11:27:23.486Z,8.27
2023-04-27T11:29:51.003Z,9.88
2023-04-27T11:32:23.137Z,9.95
2023-04-27T11:34:55.191Z,13.57
2023-04-27T11:37:26.044Z,9.65
2023-04-27T11:39:57.641Z,8.85
2023-04-27T11:42:26.368Z,10.73
2023-04-27T11:45:00.333Z,9.40
2023-04-27T11:47:30.532Z,8.85
2023-04-27T11:50:00.013Z,8.73
2023-04-27T11:52:32.138Z,10.77
2023-04-27T11:55:00.851Z,8.65
2023-04-27T11:57:30.111Z,10.35
2023-04-27T12:00:02.567Z,10.52
2023-04-27T12:02:42.556Z,8.02
2023-04-27T12:05:10.257Z,12.30
2023-04-27T12:07:37.512Z,8.93
2023-04-27T12:10:05.541Z,9.25
2023-04-27T12:12:33.603Z,9.68
2023-04-27T12:15:00.697Z,9.32
2023-04-27T12:17:27.814Z,8.30
2023-04-27T12:19:54.815Z,10.88
2023-04-27T12:22:21.875Z,9.70
2023-04-27T12:24:48.795Z,8.73
2023-04-27T12:27:16.222Z,12.25
2023-04-27T12:29:43.227Z,8.60
2023-04-27T12:32:10.347Z,9.73
2023-04-27T12:34:39.351Z,8.75
2023-04-27T12:37:06.822Z,8.27
2023-04-27T12:39:34.460Z,11.80
2023-04-27T12:42:02.549Z,8.48
2023-04-27T12:44:29.700Z,9.00
2023-04-27T12:46:57.105Z,7.65
2023-04-27T12:49:24.261Z,9.52
2023-04-27T12:51:53.001Z,7.45
2023-04-27T12:54:20.248Z,7.72
2023-04-27T12:56:47.313Z,10.00
2023-04-27T12:59:14.614Z,9.98
2023-04-27T13:01:41.740Z,7.32
2023-04-27T13:04:09.394Z,9.20
2023-04-27T13:06:36.569Z,8.68
2023-04-27T13:09:03.918Z,9.88
2023-04-27T13:11:31.317Z,7.72
2023-04-27T13:13:59.032Z,10.38
2023-04-27T13:16:26.657Z,8.85
2023-04-27T13:18:55.654Z,12.32
2023-04-27T13:21:23.277Z,8.23
2023-04-27T13:23:51.305Z,8.50
2023-04-27T13:26:18.256Z,9.25
2023-04-27T13:28:45.310Z,9.57
2023-04-27T13:31:12.540Z,8.75
2023-04-27T13:33:42.273Z,8.77
2023-04-27T13:36:10.536Z,10.80
2023-04-27T13:38:37.688Z,8.27
2023-04-27T13:41:05.229Z,8.02
2023-04-27T13:43:32.522Z,8.40
2023-04-27T13:46:01.679Z,8.32
2023-04-27T13:48:29.526Z,10.80
2023-04-27T13:50:56.735Z,7.57
2023-04-27T13:53:26.987Z,7.20
2023-04-27T13:55:55.272Z,8.35
2023-04-27T13:58:25.594Z,7.97
2023-04-27T14:00:53.614Z,9.35
2023-04-27T14:03:22.767Z,7.75
2023-04-27T14:05:51.478Z,7.60
2023-04-27T14:08:19.127Z,7.15
2023-04-27T14:10:46.860Z,8.80
2023-04-27T14:13:14.421Z,7.80
2023-04-27T14:15:42.145Z,7.55
2023-04-27T14:18:09.828Z,7.50
2023-04-27T14:20:38.194Z,8.07
2023-04-27T14:23:06.341Z,8.52
2023-04-27T14:25:34.714Z,7.25
2023-04-27T14:28:04.383Z,7.35
2023-04-27T14:30:35.306Z,7.40
2023-04-27T14:33:03.348Z,7.95
2023-04-27T14:35:30.603Z,9.93
2023-04-27T14:38:02.370Z,7.85
2023-04-27T14:40:30.647Z,8.50
2023-04-27T14:43:01.355Z,7.68
2023-04-27T14:45:36.692Z,9.10
2023-04-27T14:48:07.116Z,7.55
2023-04-27T14:50:34.300Z,7.95
2023-04-27T14:53:01.257Z,8.00
2023-04-27T14:55:28.373Z,8.25
2023-04-27T14:57:55.343Z,7.75
2023-04-27T15:00:22.405Z,8.10
2023-04-27T15:02:49.434Z,8.68
2023-04-27T15:05:16.516Z,7.85
2023-04-27T15:07:43.510Z,7.97
2023-04-27T15:10:10.908Z,8.90
2023-04-27T15:12:37.954Z,7.65
2023-04-27T15:15:07.340Z,9.45
2023-04-27T15:17:35.866Z,8.63
2023-04-27T15:20:02.924Z,8.52
2023-04-27T15:22:30.572Z,7.43
2023-04-27T15:24:57.878Z,9.27
2023-04-27T15:27:27.218Z,8.40
2023-04-27T15:29:56.836Z,9.25
2023-04-27T15:32:28.045Z,7.60
2023-04-27T15:34:55.111Z,8.20
2023-04-27T15:37:22.087Z,8.82
2023-04-27T15:39:49.343Z,9.43
2023-04-27T15:42:16.345Z,8.55
2023-04-27T15:44:43.686Z,8.13
2023-04-27T15:47:10.739Z,7.97
2023-04-27T15:49:42.766Z,9.65
2023-04-27T15:52:16.956Z,9.32
2023-04-27T15:54:44.448Z,8.70
2023-04-27T15:57:11.377Z,7.90
2023-04-27T15:59:38.331Z,9.10
2023-04-27T16:02:05.248Z,9.10
2023-04-27T16:04:32.217Z,9.23
2023-04-27T16:06:59.348Z,10.25
2023-04-27T16:09:26.313Z,8.25
2023-04-27T16:11:53.249Z,9.85
2023-04-27T16:14:20.178Z,10.25
2023-04-27T16:16:47.217Z,10.55
2023-04-27T16:19:14.599Z,9.73
2023-04-27T16:21:42.917Z,9.10
2023-04-27T16:24:09.916Z,8.63
2023-04-27T16:26:38.202Z,9.27
2023-04-27T16:29:05.238Z,8.93
2023-04-27T16:31:32.324Z,14.85
2023-04-27T16:33:59.335Z,9.45
2023-04-27T16:36:26.205Z,8.80
2023-04-27T16:38:53.134Z,9.57
2023-04-27T16:41:20.060Z,9.32
2023-04-27T16:43:47.073Z,12.18
2023-04-27T16:46:15.419Z,9.02
2023-04-27T16:48:42.554Z,9.27
2023-04-27T16:51:10.749Z,9.10
2023-04-27T16:53:37.835Z,10.07
2023-04-27T16:56:05.288Z,10.68
2023-04-27T16:58:36.327Z,10.65
2023-04-27T17:01:03.554Z,9.45
2023-04-27T17:03:30.948Z,17.75
2023-04-27T17:05:58.025Z,13.77
2023-04-27T17:08:25.369Z,9.43
2023-04-27T17:10:53.115Z,9.18
2023-04-27T17:13:20.188Z,10.73
2023-04-27T17:15:47.347Z,10.02
2023-04-27T17:18:14.531Z,9.52
2023-04-27T17:20:42.360Z,9.98
2023-04-27T17:23:09.377Z,10.82
2023-04-27T17:25:37.228Z,11.40
2023-04-27T17:28:04.284Z,9.23
2023-04-27T17:30:31.452Z,11.90
2023-04-27T17:32:58.570Z,10.32
2023-04-27T17:35:27.308Z,11.35
2023-04-27T17:37:54.782Z,11.65
2023-04-27T17:40:22.852Z,13.63
2023-04-27T17:42:50.285Z,11.23
2023-04-27T17:45:17.203Z,14.68
2023-04-27T17:47:44.245Z,11.00
2023-04-27T17:50:11.582Z,10.48
2023-04-27T17:52:39.051Z,10.50
2023-04-27T17:55:06.278Z,12.73
2023-04-27T17:57:33.862Z,12.40
2023-04-27T18:00:02.172Z,16.40
2023-04-27T18:02:37.173Z,12.20
2023-04-27T18:05:04.892Z,12.85
2023-04-27T18:07:34.210Z,12.82
2023-04-27T18:10:01.156Z,11.18
2023-04-27T18:12:28.569Z,10.40
2023-04-27T18:14:55.913Z,11.93
2023-04-27T18:17:22.923Z,12.27
2023-04-27T18:20:00.856Z,17.15
2023-04-27T18:22:38.577Z,11.50
2023-04-27T18:25:07.037Z,12.50
2023-04-27T18:27:34.093Z,13.80
2023-04-27T18:30:01.604Z,13.57
2023-04-27T18:32:30.523Z,16.23
2023-04-27T18:34:57.664Z,13.85
2023-04-27T18:37:24.725Z,17.27
2023-04-27T18:39:52.870Z,12.07
2023-04-27T18:42:20.314Z,14.52
2023-04-27T18:44:48.313Z,12.63
2023-04-27T18:47:17.732Z,14.57
2023-04-27T18:49:44.793Z,13.07
2023-04-27T18:52:11.790Z,15.18
2023-04-27T18:54:39.065Z,16.23
2023-04-27T18:57:16.743Z,18.55
2023-04-27T18:59:48.795Z,17.48
2023-04-27T19:02:15.875Z,16.25
2023-04-27T19:04:48.959Z,13.02
2023-04-27T19:07:31.519Z,15.05
2023-04-27T19:10:00.577Z,12.93
2023-04-27T19:12:27.711Z,12.82
2023-04-27T19:14:54.749Z,12.27
2023-04-27T19:17:22.365Z,13.95
2023-04-27T19:19:50.058Z,15.25
2023-04-27T19:22:17.070Z,14.27
2023-04-27T19:24:44.141Z,15.48
2023-04-27T19:27:11.824Z,17.30
2023-04-27T19:29:51.144Z,15.30
2023-04-27T19:32:19.604Z,14.02
2023-04-27T19:34:47.936Z,17.48
2023-04-27T19:37:16.157Z,14.50
2023-04-27T19:39:43.141Z,12.57
2023-04-27T19:42:10.136Z,18.13
2023-04-27T19:44:39.321Z,12.40
2023-04-27T19:47:06.820Z,10.63
2023-04-27T19:49:33.924Z,13.70
2023-04-27T19:52:01.063Z,12.02
2023-04-27T19:54:29.769Z,14.55
2023-04-27T19:56:56.889Z,14.38
2023-04-27T19:59:23.992Z,14.68
2023-04-27T20:01:51.171Z,12.95
2023-04-27T20:04:18.913Z,13.30
2023-04-27T20:06:47.000Z,14.00
2023-04-27T20:09:14.217Z,12.15
2023-04-27T20:11:41.294Z,16.30
2023-04-27T20:14:08.212Z,15.93
2023-04-27T20:16:35.207Z,13.20
2023-04-27T20:19:02.148Z,10.07
2023-04-27T20:21:29.444Z,12.15
2023-04-27T20:23:56.468Z,16.50
2023-04-27T20:26:24.587Z,15.80
2023-04-27T20:28:51.538Z,12.82
2023-04-27T20:31:18.540Z,16.50
2023-04-27T20:33:45.491Z,13.02
2023-04-27T20:36:17.038Z,13.85
2023-04-27T20:38:45.819Z,12.93
2023-04-27T20:41:13.937Z,11.98
2023-04-27T20:43:41.149Z,12.90
2023-04-27T20:46:08.425Z,13.80
2023-04-27T20:48:35.725Z,12.57
2023-04-27T20:51:02.927Z,12.52
2023-04-27T20:53:30.066Z,14.27
2023-04-27T20:55:57.220Z,14.85
2023-04-27T20:58:24.204Z,11.93
2023-04-27T21:00:51.594Z,13.55
2023-04-27T21:03:18.774Z,14.05
2023-04-27T21:05:46.052Z,13.05
2023-04-27T21:08:13.070Z,13.55
2023-04-27T21:10:40.047Z,13.48
2023-04-27T21:13:07.336Z,12.70
2023-04-27T21:15:34.380Z,12.50
2023-04-27T21:18:01.399Z,11.68
2023-04-27T21:20:28.269Z,12.18
2023-04-27T21:22:55.507Z,11.93
2023-04-27T21:25:23.825Z,12.07
2023-04-27T21:27:51.139Z,12.23
2023-04-27T21:30:18.117Z,15.55
2023-04-27T21:32:45.114Z,13.68
2023-04-27T21:35:12.324Z,11.90
2023-04-27T21:37:39.296Z,10.23
2023-04-27T21:40:07.089Z,13.05
2023-04-27T21:42:34.152Z,11.20
2023-04-27T21:45:01.237Z,12.85
2023-04-27T21:47:28.308Z,11.65
2023-04-27T21:49:55.812Z,12.98
2023-04-27T21:52:22.698Z,12.32
2023-04-27T21:54:49.817Z,16.35
2023-04-27T21:57:19.951Z,13.18
2023-04-27T21:59:47.148Z,14.77
2023-04-27T22:02:14.352Z,10.70
2023-04-27T22:04:41.518Z,12.00
2023-04-27T22:07:09.169Z,10.70
2023-04-27T22:09:36.078Z,13.73
2023-04-27T22:12:03.513Z,13.60
2023-04-27T22:14:31.486Z,11.35
2023-04-27T22:17:01.036Z,12.95
2023-04-27T22:19:28.929Z,11.75
2023-04-27T22:21:56.109Z,14.32
2023-04-27T22:24:23.950Z,11.18
2023-04-27T22:26:51.111Z,16.88
2023-04-27T22:29:18.247Z,11.80
2023-04-27T22:31:45.888Z,16.25
2023-04-27T22:34:13.528Z,12.52
2023-04-27T22:36:41.427Z,14.98
2023-04-27T22:39:09.059Z,10.60
2023-04-27T22:41:36.252Z,12.63
2023-04-27T22:44:03.230Z,11.70
2023-04-27T22:46:30.236Z,10.45
2023-04-27T22:48:58.702Z,16.23
2023-04-27T22:51:27.662Z,11.85
2023-04-27T22:53:54.940Z,11.18
2023-04-27T22:56:22.648Z,13.85
2023-04-27T22:58:49.915Z,10.20
2023-04-27T23:01:17.050Z,11.48
2023-04-27T23:03:44.382Z,12.32
2023-04-27T23:06:15.010Z,12.82
2023-04-27T23:08:44.019Z,13.95
2023-04-27T23:11:13.941Z,11.38
2023-04-27T23:13:41.108Z,12.25
2023-04-27T23:16:10.122Z,11.88
2023-04-27T23:18:37.290Z,10.48
2023-04-27T23:21:04.380Z,10.02
2023-04-27T23:23:31.560Z,12.13
2023-04-27T23:25:58.609Z,12.50
2023-04-27T23:28:25.945Z,12.73
2023-04-27T23:30:54.756Z,11.02
2023-04-27T23:33:22.376Z,12.50
2023-04-27T23:35:49.446Z,12.45
2023-04-27T23:38:16.593Z,14.73
2023-04-27T23:40:43.613Z,12.45
2023-04-27T23:43:10.691Z,11.45
2023-04-27T23:45:37.780Z,11.93
2023-04-27T23:48:05.257Z,16.48
2023-04-27T23:50:33.082Z,11.70
2023-04-27T23:53:00.028Z,11.20
2023-04-27T23:55:26.984Z,11.02
2023-04-27T23:57:54.048Z,12.07
